createdAt,value
2017-12-17T00:01:37.875Z,47.97
2017-12-17T00:04:05.572Z,48.53
2017-12-17T00:06:33.192Z,45.80
2017-12-17T00:09:00.894Z,41.47
2017-12-17T00:11:28.514Z,33.57
2017-12-17T00:13:58.047Z,36.77
2017-12-17T00:16:25.676Z,31.63
2017-12-17T00:18:53.383Z,29.23
2017-12-17T00:21:21.011Z,31.47
2017-12-17T00:23:49.059Z,30.83
2017-12-17T00:26:16.750Z,26.13
2017-12-17T00:28:44.381Z,28.63
2017-12-17T00:31:12.125Z,29.63
2017-12-17T00:33:39.825Z,26.97
2017-12-17T00:36:07.462Z,31.73
2017-12-17T00:38:35.083Z,31.07
2017-12-17T00:41:02.777Z,30.47
2017-12-17T00:43:30.401Z,37.00
2017-12-17T00:48:37.204Z,34.20
2017-12-17T00:51:04.824Z,35.20
2017-12-17T00:53:32.456Z,35.30
2017-12-17T00:56:01.099Z,41.30
2017-12-17T00:58:28.741Z,44.83
2017-12-17T01:00:56.362Z,37.73
2017-12-17T01:03:24.064Z,21.27
2017-12-17T01:05:51.689Z,31.40
2017-12-17T01:08:19.316Z,23.37
2017-12-17T01:10:46.998Z,14.70
2017-12-17T01:15:46.416Z,30.00
2017-12-17T01:18:14.046Z,24.87
2017-12-17T01:20:41.865Z,22.30
2017-12-17T01:23:09.333Z,25.83
2017-12-17T01:25:37.016Z,18.93
2017-12-17T01:28:04.573Z,17.13
2017-12-17T01:30:33.114Z,18.13
2017-12-17T01:33:00.741Z,20.87
2017-12-17T01:35:28.353Z,19.20
2017-12-17T01:37:56.018Z,21.00
2017-12-17T01:40:23.631Z,18.43
2017-12-17T01:42:51.243Z,19.03
2017-12-17T01:45:18.970Z,19.97
2017-12-17T01:47:46.551Z,21.40
2017-12-17T01:50:14.167Z,21.70
2017-12-17T01:52:41.835Z,23.60
2017-12-17T01:55:09.452Z,19.87
2017-12-17T01:57:37.070Z,18.77
2017-12-17T02:00:04.768Z,18.87
2017-12-17T02:05:12.020Z,24.37
2017-12-17T02:07:39.641Z,20.53
2017-12-17T02:10:08.199Z,24.43
2017-12-17T02:12:35.867Z,22.20
2017-12-17T02:15:03.488Z,20.33
2017-12-17T02:17:34.384Z,17.70
2017-12-17T02:20:02.070Z,17.97
2017-12-17T02:25:13.051Z,22.42
2017-12-17T02:27:40.668Z,21.17
2017-12-17T02:30:08.281Z,19.43
2017-12-17T02:32:36.698Z,21.93
2017-12-17T02:35:04.317Z,22.47
2017-12-17T02:37:31.932Z,21.20
2017-12-17T02:39:59.635Z,21.70
2017-12-17T02:45:07.560Z,24.25
2017-12-17T02:47:35.103Z,21.57
2017-12-17T02:50:02.719Z,23.50
2017-12-17T02:52:30.414Z,21.90
2017-12-17T02:54:58.028Z,22.73
2017-12-17T02:57:26.593Z,18.40
2017-12-17T02:59:54.273Z,20.47
2017-12-17T03:02:21.894Z,17.70
2017-12-17T03:04:49.518Z,19.47
2017-12-17T03:07:17.220Z,19.10
2017-12-17T03:09:44.839Z,22.20
2017-12-17T03:12:13.473Z,19.87
2017-12-17T03:14:41.160Z,19.37
2017-12-17T03:17:08.777Z,18.60
2017-12-17T03:19:36.396Z,18.90
2017-12-17T03:22:04.509Z,23.90
2017-12-17T03:24:32.111Z,23.30
2017-12-17T03:26:59.735Z,20.00
2017-12-17T03:29:27.408Z,15.67
2017-12-17T03:31:55.036Z,20.03
2017-12-17T03:34:22.685Z,21.17
2017-12-17T03:36:50.356Z,22.17
2017-12-17T03:39:17.977Z,17.57
2017-12-17T03:41:45.590Z,17.63
2017-12-17T03:46:52.374Z,24.35
2017-12-17T03:49:20.065Z,21.87
2017-12-17T03:51:47.700Z,19.93
2017-12-17T03:54:15.322Z,19.60
2017-12-17T03:56:43.026Z,19.47
2017-12-17T03:59:10.644Z,22.93
2017-12-17T04:01:38.266Z,19.50
2017-12-17T04:04:05.949Z,22.63
2017-12-17T04:06:33.556Z,23.73
2017-12-17T04:09:01.172Z,24.87
2017-12-17T04:11:28.872Z,19.77
2017-12-17T04:13:56.489Z,18.20
2017-12-17T04:16:24.104Z,20.30
2017-12-17T04:18:51.781Z,20.53
2017-12-17T04:21:19.420Z,19.77
2017-12-17T04:23:47.036Z,16.33
2017-12-17T04:26:14.723Z,17.67
2017-12-17T04:28:42.342Z,20.17
2017-12-17T04:31:09.959Z,20.40
2017-12-17T04:33:38.538Z,23.93
2017-12-17T04:36:06.151Z,21.80
2017-12-17T04:38:33.762Z,19.63
2017-12-17T04:41:01.447Z,18.47
2017-12-17T04:43:29.054Z,20.40
2017-12-17T04:45:56.669Z,21.37
2017-12-17T04:48:24.361Z,21.03
2017-12-17T04:50:52.466Z,19.17
2017-12-17T04:53:20.109Z,25.33
2017-12-17T04:55:47.787Z,21.40
2017-12-17T04:58:15.397Z,19.73
2017-12-17T05:03:24.170Z,22.37
2017-12-17T05:05:51.779Z,16.57
2017-12-17T05:08:23.378Z,19.23
2017-12-17T05:10:51.312Z,19.07
2017-12-17T05:13:18.927Z,16.90
2017-12-17T05:23:39.231Z,27.92
2017-12-17T05:26:06.846Z,21.97
2017-12-17T05:28:34.465Z,28.07
2017-12-17T05:31:03.097Z,29.20
2017-12-17T05:33:30.721Z,29.77
2017-12-17T05:35:58.334Z,23.00
2017-12-17T05:38:26.532Z,21.77
2017-12-17T05:40:54.068Z,26.70
2017-12-17T05:43:21.685Z,29.60
2017-12-17T05:45:49.369Z,28.90
2017-12-17T05:48:16.985Z,28.37
2017-12-17T05:50:45.422Z,31.13
2017-12-17T05:53:13.111Z,23.57
2017-12-17T05:55:41.688Z,25.17
2017-12-17T05:58:09.305Z,26.40
2017-12-17T06:00:37.014Z,22.00
2017-12-17T06:03:04.597Z,20.07
2017-12-17T06:05:32.760Z,19.33
2017-12-17T06:08:00.947Z,18.03
2017-12-17T06:10:29.396Z,18.70
2017-12-17T06:12:57.017Z,21.63
2017-12-17T06:15:24.685Z,21.70
2017-12-17T06:17:52.828Z,18.17
2017-12-17T06:20:21.204Z,20.00
2017-12-17T06:22:48.870Z,23.13
2017-12-17T06:25:16.484Z,21.87
2017-12-17T06:27:44.099Z,22.57
2017-12-17T06:30:11.762Z,19.93
2017-12-17T06:32:39.399Z,22.53
2017-12-17T06:35:07.426Z,19.77
2017-12-17T06:37:35.151Z,19.97
2017-12-17T06:42:41.354Z,26.77
2017-12-17T06:45:08.965Z,22.40
2017-12-17T06:47:36.580Z,19.77
2017-12-17T06:50:04.270Z,16.43
2017-12-17T06:52:31.886Z,20.47
2017-12-17T06:54:59.505Z,23.47
2017-12-17T06:57:27.176Z,17.47
2017-12-17T06:59:54.793Z,17.33
2017-12-17T07:02:22.405Z,21.90
2017-12-17T07:04:50.101Z,21.57
2017-12-17T07:07:17.706Z,19.50
2017-12-17T07:09:45.323Z,21.80
2017-12-17T07:12:12.990Z,18.70
2017-12-17T07:14:40.608Z,22.07
2017-12-17T07:17:08.222Z,21.53
2017-12-17T07:19:36.302Z,19.97
2017-12-17T07:22:03.916Z,19.20
2017-12-17T07:24:31.537Z,18.77
2017-12-17T07:26:59.208Z,21.60
2017-12-17T07:29:26.835Z,19.57
2017-12-17T07:31:54.443Z,26.70
2017-12-17T07:34:22.158Z,26.10
2017-12-17T07:36:49.752Z,21.03
2017-12-17T07:39:17.364Z,16.83
2017-12-17T07:41:45.058Z,18.40
2017-12-17T07:44:12.668Z,17.23
2017-12-17T07:46:41.235Z,21.77
2017-12-17T07:49:08.921Z,24.97
2017-12-17T07:51:36.541Z,18.23
2017-12-17T07:54:04.158Z,17.27
2017-12-17T07:56:32.695Z,21.97
2017-12-17T07:59:00.322Z,20.33
2017-12-17T08:01:27.935Z,19.57
2017-12-17T08:03:56.435Z,15.70
2017-12-17T08:06:24.250Z,18.30
2017-12-17T08:11:31.008Z,25.80
2017-12-17T08:13:58.620Z,26.80
2017-12-17T08:16:26.235Z,23.77
2017-12-17T08:18:53.922Z,28.13
2017-12-17T08:21:21.535Z,22.20
2017-12-17T08:23:49.153Z,24.57
2017-12-17T08:26:16.822Z,21.27
2017-12-17T08:28:45.349Z,18.93
2017-12-17T08:31:13.822Z,16.87
2017-12-17T08:33:41.519Z,22.50
2017-12-17T08:36:09.153Z,18.13
2017-12-17T08:38:36.773Z,20.20
2017-12-17T08:41:04.448Z,23.17
2017-12-17T08:43:32.057Z,24.17
2017-12-17T08:45:59.685Z,23.53
2017-12-17T08:48:28.221Z,19.17
2017-12-17T08:50:56.691Z,15.80
2017-12-17T08:53:24.306Z,14.60
2017-12-17T08:55:52.000Z,14.57
2017-12-17T08:58:19.657Z,13.80
2017-12-17T09:00:47.286Z,15.43
2017-12-17T09:03:14.955Z,14.73
2017-12-17T09:05:42.578Z,11.37
2017-12-17T09:08:10.783Z,12.93
2017-12-17T09:10:38.471Z,15.37
2017-12-17T09:13:06.087Z,14.07
2017-12-17T09:15:33.708Z,14.57
2017-12-17T09:18:01.382Z,11.77
2017-12-17T09:20:29.005Z,9.17
2017-12-17T09:22:56.614Z,10.03
2017-12-17T09:25:24.560Z,11.63
2017-12-17T09:27:52.178Z,8.60
2017-12-17T09:30:19.805Z,11.70
2017-12-17T09:32:47.504Z,12.43
2017-12-17T09:37:56.350Z,16.33
2017-12-17T09:40:23.980Z,15.97
2017-12-17T09:42:51.602Z,12.30
2017-12-17T09:45:19.281Z,11.63
2017-12-17T09:47:46.911Z,14.83
2017-12-17T09:50:14.527Z,17.30
2017-12-17T09:52:42.198Z,18.13
2017-12-17T09:55:09.819Z,17.27
2017-12-17T09:57:37.446Z,16.67
2017-12-17T10:00:05.157Z,20.30
2017-12-17T10:02:32.775Z,17.70
2017-12-17T10:05:01.316Z,23.17
2017-12-17T10:07:29.017Z,23.00
2017-12-17T10:09:56.893Z,26.37
2017-12-17T10:12:24.510Z,23.77
2017-12-17T10:14:52.198Z,25.47
2017-12-17T10:17:19.812Z,25.83
2017-12-17T10:19:48.080Z,27.00
2017-12-17T10:22:15.783Z,28.87
2017-12-17T10:24:43.426Z,25.87
2017-12-17T10:27:11.039Z,25.93
2017-12-17T10:29:38.713Z,25.30
2017-12-17T10:32:07.123Z,19.63
2017-12-17T10:34:34.709Z,26.97
2017-12-17T10:37:02.415Z,26.30
2017-12-17T10:39:30.048Z,25.23
2017-12-17T10:41:57.665Z,22.47
2017-12-17T10:44:25.344Z,11.00
2017-12-17T10:46:52.957Z,13.27
2017-12-17T10:49:20.579Z,15.50
2017-12-17T10:51:48.254Z,13.70
2017-12-17T10:54:15.871Z,14.40
2017-12-17T10:56:43.491Z,9.07
2017-12-17T10:59:11.161Z,11.50
2017-12-17T11:04:17.918Z,16.35
2017-12-17T11:06:45.549Z,11.43
2017-12-17T11:09:14.944Z,9.77
2017-12-17T11:11:42.700Z,14.23
2017-12-17T11:14:10.305Z,13.23
2017-12-17T11:16:37.931Z,9.40
2017-12-17T11:19:06.564Z,9.10
2017-12-17T11:21:34.176Z,14.30
2017-12-17T11:24:01.802Z,11.67
2017-12-17T11:26:29.485Z,9.47
2017-12-17T11:28:57.092Z,10.57
2017-12-17T11:31:24.736Z,14.73
2017-12-17T11:33:52.404Z,16.53
2017-12-17T11:36:20.032Z,11.63
2017-12-17T11:38:47.668Z,7.13
2017-12-17T11:41:15.383Z,9.87
2017-12-17T11:43:43.008Z,11.17
2017-12-17T11:46:10.632Z,8.07
2017-12-17T11:48:38.328Z,12.17
2017-12-17T11:51:05.950Z,12.50
2017-12-17T11:53:33.582Z,15.80
2017-12-17T11:56:01.613Z,7.73
2017-12-17T11:58:29.248Z,7.97
2017-12-17T12:00:56.915Z,6.57
2017-12-17T12:03:24.599Z,4.00
2017-12-17T12:05:52.219Z,7.77
2017-12-17T12:08:19.869Z,4.53
2017-12-17T12:13:28.405Z,5.35
2017-12-17T12:15:57.035Z,6.57
2017-12-17T12:18:25.655Z,5.30
2017-12-17T12:20:53.302Z,6.10
2017-12-17T12:25:59.732Z,9.00
2017-12-17T12:28:27.408Z,7.07
2017-12-17T12:30:55.034Z,6.13
2017-12-17T12:33:22.650Z,4.77
2017-12-17T12:35:51.108Z,3.20
2017-12-17T12:38:18.742Z,4.77
2017-12-17T12:40:46.474Z,2.97
2017-12-17T12:43:14.885Z,4.50
2017-12-17T12:45:42.522Z,2.80
2017-12-17T12:48:10.975Z,4.43
2017-12-17T12:50:38.676Z,3.30
2017-12-17T12:53:06.290Z,6.37
2017-12-17T12:55:33.908Z,5.40
2017-12-17T12:58:01.629Z,7.53
2017-12-17T13:03:08.305Z,7.97
2017-12-17T13:05:35.915Z,8.07
2017-12-17T13:08:03.525Z,8.10
2017-12-17T13:10:31.214Z,8.20
2017-12-17T13:12:58.819Z,8.27
2017-12-17T13:15:26.450Z,9.77
2017-12-17T13:17:54.143Z,11.07
2017-12-17T13:20:23.433Z,14.70
2017-12-17T13:22:51.039Z,16.93
2017-12-17T13:25:18.731Z,14.33
2017-12-17T13:27:46.339Z,9.20
2017-12-17T13:30:13.947Z,7.73
2017-12-17T13:32:41.634Z,7.90
2017-12-17T13:35:09.239Z,4.57
2017-12-17T13:37:37.146Z,5.23
2017-12-17T13:40:05.551Z,10.47
2017-12-17T13:42:33.155Z,5.73
2017-12-17T13:45:01.495Z,6.37
2017-12-17T13:47:30.466Z,7.23
2017-12-17T13:49:56.777Z,6.90
2017-12-17T13:52:24.386Z,9.40
2017-12-17T13:54:52.069Z,9.50
2017-12-17T13:57:19.683Z,9.60
2017-12-17T13:59:47.825Z,11.13
2017-12-17T14:02:15.494Z,12.27
2017-12-17T14:04:43.113Z,12.40
2017-12-17T14:07:10.729Z,12.03
2017-12-17T14:12:17.517Z,13.27
2017-12-17T14:14:45.179Z,11.20
2017-12-17T14:17:12.784Z,9.63
2017-12-17T14:19:40.392Z,9.30
2017-12-17T14:22:08.094Z,13.43
2017-12-17T14:24:35.691Z,12.03
2017-12-17T14:27:03.304Z,11.47
2017-12-17T14:29:30.972Z,12.57
2017-12-17T14:31:58.583Z,16.67
2017-12-17T14:34:26.207Z,14.10
2017-12-17T14:36:53.910Z,17.27
2017-12-17T14:39:21.541Z,14.40
2017-12-17T14:44:29.931Z,20.75
2017-12-17T14:46:57.556Z,15.00
2017-12-17T14:49:25.318Z,15.90
2017-12-17T14:51:53.005Z,16.67
2017-12-17T14:54:20.632Z,17.30
2017-12-17T14:56:48.264Z,17.13
2017-12-17T15:01:54.675Z,17.75
2017-12-17T15:04:22.355Z,14.37
2017-12-17T15:06:49.987Z,12.80
2017-12-17T15:09:17.607Z,10.47
2017-12-17T15:11:48.511Z,11.00
2017-12-17T15:14:16.135Z,12.67
2017-12-17T15:16:43.763Z,12.03
2017-12-17T15:19:11.438Z,10.73
2017-12-17T15:21:39.082Z,8.60
2017-12-17T15:24:06.691Z,9.63
2017-12-17T15:26:34.367Z,13.80
2017-12-17T15:29:02.007Z,18.27
2017-12-17T15:31:29.645Z,18.60
2017-12-17T15:33:57.345Z,14.13
2017-12-17T15:36:25.095Z,15.43
2017-12-17T15:38:52.599Z,17.90
2017-12-17T15:41:20.307Z,12.40
2017-12-17T15:43:47.944Z,14.67
2017-12-17T15:46:15.560Z,14.53
2017-12-17T15:48:43.996Z,15.93
2017-12-17T15:51:11.619Z,11.57
2017-12-17T15:53:39.267Z,10.43
2017-12-17T15:56:06.956Z,13.20
2017-12-17T15:58:34.582Z,12.90
2017-12-17T16:01:02.213Z,10.03
2017-12-17T16:03:29.916Z,27.00
2017-12-17T16:05:57.539Z,12.63
2017-12-17T16:08:25.170Z,15.57
2017-12-17T16:10:52.872Z,19.63
2017-12-17T16:13:20.495Z,30.93
2017-12-17T16:15:48.116Z,21.73
2017-12-17T16:18:15.798Z,44.33
2017-12-17T16:23:22.592Z,24.20
2017-12-17T16:25:50.222Z,25.27
2017-12-17T16:28:17.844Z,24.07
2017-12-17T16:30:45.530Z,26.40
2017-12-17T16:33:13.200Z,19.03
2017-12-17T16:35:40.824Z,23.53
2017-12-17T16:38:08.530Z,24.27
2017-12-17T16:40:36.152Z,22.87
2017-12-17T16:43:03.776Z,22.87
2017-12-17T16:45:31.483Z,17.70
2017-12-17T16:47:59.186Z,14.07
2017-12-17T16:50:26.796Z,17.97
2017-12-17T16:52:54.500Z,19.93
2017-12-17T16:55:22.133Z,16.17
2017-12-17T16:57:49.757Z,11.47
2017-12-17T17:02:58.156Z,17.20
2017-12-17T17:05:25.836Z,16.53
2017-12-17T17:07:53.455Z,11.30
2017-12-17T17:10:21.083Z,11.80
2017-12-17T17:12:51.651Z,11.17
2017-12-17T17:15:16.407Z,12.07
2017-12-17T17:17:44.035Z,10.27
2017-12-17T17:20:11.731Z,11.60
2017-12-17T17:22:39.340Z,14.13
2017-12-17T17:25:06.973Z,14.67
2017-12-17T17:27:34.784Z,9.77
2017-12-17T17:30:03.103Z,11.50
2017-12-17T17:32:34.943Z,15.37
2017-12-17T17:35:02.163Z,14.67
2017-12-17T17:37:29.783Z,16.13
2017-12-17T17:39:57.397Z,14.27
2017-12-17T17:42:25.232Z,12.27
2017-12-17T17:44:52.847Z,13.40
2017-12-17T17:47:20.475Z,11.90
2017-12-17T17:49:48.223Z,14.50
2017-12-17T17:52:15.851Z,22.93
2017-12-17T17:54:43.481Z,16.13
2017-12-17T17:57:11.402Z,12.90
2017-12-17T17:59:39.020Z,12.80
2017-12-17T18:02:06.665Z,15.10
2017-12-17T18:04:34.414Z,12.23
2017-12-17T18:07:02.030Z,11.60
2017-12-17T18:09:29.651Z,10.87
2017-12-17T18:11:57.348Z,15.40
2017-12-17T18:14:24.976Z,9.87
2017-12-17T18:16:52.597Z,13.60
2017-12-17T18:19:20.290Z,12.10
2017-12-17T18:21:47.909Z,13.57
2017-12-17T18:26:55.624Z,13.20
2017-12-17T18:29:23.257Z,11.23
2017-12-17T18:31:50.885Z,14.50
2017-12-17T18:34:18.601Z,18.73
2017-12-17T18:36:46.230Z,18.40
2017-12-17T18:39:13.878Z,14.07
2017-12-17T18:41:41.568Z,14.77
2017-12-17T18:44:09.193Z,11.30
2017-12-17T18:46:36.824Z,11.37
2017-12-17T18:49:04.528Z,14.87
2017-12-17T18:51:33.016Z,15.07
2017-12-17T18:54:00.631Z,16.17
2017-12-17T18:56:28.325Z,17.47
2017-12-17T18:58:56.060Z,14.03
2017-12-17T19:01:23.686Z,11.73
2017-12-17T19:03:51.359Z,9.80
2017-12-17T19:06:19.862Z,12.80
2017-12-17T19:08:47.485Z,11.57
2017-12-17T19:11:16.219Z,12.73
2017-12-17T19:13:43.755Z,12.83
2017-12-17T19:16:12.125Z,11.70
2017-12-17T19:18:39.831Z,12.07
2017-12-17T19:21:07.447Z,14.90
2017-12-17T19:23:35.258Z,13.80
2017-12-17T19:26:02.963Z,15.50
2017-12-17T19:28:30.651Z,14.67
2017-12-17T19:30:58.268Z,16.70
2017-12-17T19:33:26.213Z,16.73
2017-12-17T19:35:54.007Z,28.73
2017-12-17T19:38:21.599Z,156.87
2017-12-17T19:40:49.304Z,45.17
2017-12-17T19:43:16.944Z,19.37
2017-12-17T19:45:44.565Z,27.67
2017-12-17T19:48:12.240Z,29.40
2017-12-17T19:53:19.044Z,24.20
2017-12-17T19:55:46.666Z,21.37
2017-12-17T19:58:14.350Z,20.20
2017-12-17T20:00:42.033Z,20.33
2017-12-17T20:03:09.674Z,19.37
2017-12-17T20:05:37.312Z,14.73
2017-12-17T20:08:04.998Z,21.23
2017-12-17T20:10:32.641Z,16.53
2017-12-17T20:13:00.263Z,17.67
2017-12-17T20:15:27.966Z,17.63
2017-12-17T20:17:55.582Z,14.43
2017-12-17T20:20:23.223Z,19.33
2017-12-17T20:22:50.913Z,17.50
2017-12-17T20:25:18.677Z,13.77
2017-12-17T20:27:46.281Z,15.87
2017-12-17T20:30:14.011Z,15.57
2017-12-17T20:32:41.653Z,18.13
2017-12-17T20:35:09.255Z,19.47
2017-12-17T20:37:36.967Z,16.37
2017-12-17T20:40:04.678Z,15.30
2017-12-17T20:42:32.359Z,15.37
2017-12-17T20:45:00.045Z,15.03
2017-12-17T20:47:27.664Z,21.03
2017-12-17T20:49:55.293Z,17.77
2017-12-17T20:52:22.995Z,18.83
2017-12-17T20:54:50.620Z,18.33
2017-12-17T20:57:18.256Z,18.40
2017-12-17T20:59:46.078Z,14.80
2017-12-17T21:02:13.682Z,15.90
2017-12-17T21:04:41.302Z,24.37
2017-12-17T21:07:08.991Z,22.20
2017-12-17T21:09:36.618Z,16.13
2017-12-17T21:14:43.411Z,24.30
2017-12-17T21:17:11.040Z,19.73
2017-12-17T21:19:38.678Z,20.83
2017-12-17T21:22:06.379Z,23.93
2017-12-17T21:24:34.027Z,20.40
2017-12-17T21:27:01.748Z,19.03
2017-12-17T21:29:29.436Z,16.47
2017-12-17T21:31:57.073Z,21.27
2017-12-17T21:34:24.705Z,26.60
2017-12-17T21:36:52.450Z,23.37
2017-12-17T21:39:20.109Z,27.90
2017-12-17T21:41:47.735Z,31.23
2017-12-17T21:44:15.416Z,32.37
2017-12-17T21:46:43.045Z,29.30
2017-12-17T21:49:10.655Z,28.20
2017-12-17T21:51:38.374Z,27.30
2017-12-17T21:54:05.995Z,28.63
2017-12-17T21:56:33.631Z,20.13
2017-12-17T21:59:01.335Z,29.63
2017-12-17T22:01:29.046Z,32.57
2017-12-17T22:03:56.649Z,32.23
2017-12-17T22:06:24.363Z,34.00
2017-12-17T22:08:51.988Z,33.27
2017-12-17T22:11:19.615Z,35.00
2017-12-17T22:13:47.600Z,27.63
2017-12-17T22:16:15.217Z,31.17
2017-12-17T22:18:42.852Z,34.73
2017-12-17T22:21:10.537Z,30.73
2017-12-17T22:23:38.154Z,34.63
2017-12-17T22:26:05.786Z,34.53
2017-12-17T22:28:33.488Z,30.13
2017-12-17T22:31:01.115Z,28.73
2017-12-17T22:33:28.755Z,32.17
2017-12-17T22:35:56.426Z,28.47
2017-12-17T22:38:24.045Z,32.67
2017-12-17T22:43:30.841Z,28.87
2017-12-17T22:45:58.453Z,25.57
2017-12-17T22:48:26.075Z,25.63
2017-12-17T22:50:53.759Z,27.77
2017-12-17T22:53:21.378Z,18.87
2017-12-17T22:55:49.097Z,21.03
2017-12-17T22:58:16.766Z,14.17
2017-12-17T23:00:44.386Z,16.33
2017-12-17T23:03:12.007Z,22.70
2017-12-17T23:05:39.705Z,19.30
2017-12-17T23:08:07.315Z,20.70
2017-12-17T23:10:34.948Z,19.47
2017-12-17T23:15:41.358Z,22.55
2017-12-17T23:18:09.027Z,20.60
2017-12-17T23:20:36.648Z,20.97
2017-12-17T23:25:36.112Z,18.47
2017-12-17T23:28:03.728Z,21.00
2017-12-17T23:30:31.359Z,18.83
2017-12-17T23:32:59.038Z,20.87
2017-12-17T23:35:26.663Z,17.90
2017-12-17T23:37:54.283Z,18.00
2017-12-17T23:40:21.979Z,17.90
2017-12-17T23:42:49.651Z,15.43
2017-12-17T23:45:17.239Z,22.27
2017-12-17T23:47:44.920Z,18.43
2017-12-17T23:50:12.539Z,15.43
2017-12-17T23:52:40.160Z,13.40
2017-12-17T23:55:08.156Z,14.70
2017-12-17T23:57:35.777Z,13.67
